createdAt,value
2022-09-23T00:02:26.736Z,78.3
2022-09-23T00:07:26.704Z,78.8
2022-09-23T00:12:26.705Z,78.3
2022-09-23T00:17:26.698Z,78.2
2022-09-23T00:22:26.717Z,78.8
2022-09-23T00:32:26.713Z,80.1
2022-09-23T00:37:26.704Z,81.4
2022-09-23T00:47:26.700Z,79.6
2022-09-23T00:52:26.700Z,78.9
2022-09-23T00:57:26.708Z,78.7
2022-09-23T01:02:26.798Z,79.5
2022-09-23T01:07:26.724Z,79.9
2022-09-23T01:12:26.721Z,79.1
2022-09-23T01:22:26.714Z,79.3
2022-09-23T01:27:26.712Z,79.5
2022-09-23T01:32:26.740Z,80.8
2022-09-23T01:37:26.734Z,81.2
2022-09-23T01:42:26.730Z,80.4
2022-09-23T01:47:26.728Z,79.6
2022-09-23T01:52:26.757Z,81.1
2022-09-23T02:02:26.851Z,79.6
2022-09-23T02:12:26.734Z,81.0
2022-09-23T02:22:26.738Z,82.1
2022-09-23T02:27:26.730Z,81.7
2022-09-23T02:32:26.751Z,80.7
2022-09-23T02:42:26.738Z,80.2
2022-09-23T02:47:26.746Z,80.5
2022-09-23T02:52:26.732Z,80.7
2022-09-23T02:57:26.744Z,80.0
2022-09-23T03:12:26.748Z,79.9
2022-09-23T03:22:26.764Z,80.1
2022-09-23T03:32:26.745Z,80.2
2022-09-23T03:52:26.762Z,80.5
2022-09-23T04:02:26.870Z,80.8
2022-09-23T04:12:26.769Z,81.3
2022-09-23T04:17:26.791Z,82.4
2022-09-23T04:27:26.776Z,80.7
2022-09-23T04:37:26.773Z,80.2
2022-09-23T04:52:26.778Z,81.0
2022-09-23T05:02:26.828Z,80.9
2022-09-23T05:07:26.788Z,80.6
2022-09-23T05:17:26.790Z,82.3
2022-09-23T05:27:26.793Z,80.8
2022-09-23T05:37:26.795Z,81.4
2022-09-23T05:42:26.807Z,82.2
2022-09-23T05:47:26.786Z,82.9
2022-09-23T05:52:26.789Z,81.8
2022-09-23T05:57:26.795Z,81.0
2022-09-23T06:02:26.816Z,81.1
2022-09-23T06:07:26.797Z,81.1
2022-09-23T06:22:26.812Z,80.3
2022-09-23T06:27:26.809Z,80.8
2022-09-23T06:32:26.812Z,79.8
2022-09-23T06:37:26.823Z,79.5
2022-09-23T06:42:26.859Z,78.7
2022-09-23T06:57:26.811Z,78.6
2022-09-23T07:02:27.031Z,75.9
2022-09-23T07:07:26.824Z,74.8
2022-09-23T07:22:26.824Z,75.7
2022-09-23T07:47:26.834Z,76.5
2022-09-23T07:52:26.839Z,74.9
2022-09-23T07:57:26.842Z,73.8
2022-09-23T08:02:26.901Z,73.8
2022-09-23T08:07:26.840Z,72.4
2022-09-23T08:12:26.850Z,71.1
2022-09-23T08:17:26.843Z,69.5
2022-09-23T08:22:26.842Z,70.4
2022-09-23T08:27:26.840Z,69.4
2022-09-23T08:32:26.843Z,67.7
2022-09-23T08:37:26.856Z,68.2
2022-09-23T08:42:26.858Z,66.7
2022-09-23T08:47:26.866Z,67.2
2022-09-23T08:52:26.868Z,65.2
2022-09-23T08:57:26.851Z,66.1
2022-09-23T09:02:26.944Z,64.7
2022-09-23T09:17:26.863Z,63.6
2022-09-23T09:22:27.033Z,62.8
2022-09-23T09:27:26.869Z,62.2
2022-09-23T09:32:26.874Z,61.6
2022-09-23T09:37:26.869Z,61.7
2022-09-23T09:42:26.878Z,60.7
2022-09-23T09:47:26.873Z,60.3
2022-09-23T09:52:26.877Z,59.7
2022-09-23T09:57:32.181Z,57.5
2022-09-23T10:02:26.818Z,57.5
2022-09-23T10:07:26.827Z,58.0
2022-09-23T10:12:26.821Z,59.2
2022-09-23T10:17:26.831Z,58.0
2022-09-23T10:22:26.854Z,58.5
2022-09-23T10:27:26.820Z,57.3
2022-09-23T10:37:26.845Z,57.1
2022-09-23T10:42:26.834Z,56.1
2022-09-23T10:47:27.091Z,57.3
2022-09-23T10:52:26.851Z,57.3
2022-09-23T10:57:26.842Z,56.2
2022-09-23T11:02:26.852Z,57.2
2022-09-23T11:07:26.857Z,57.3
2022-09-23T11:12:26.851Z,57.0
2022-09-23T11:17:26.859Z,57.2
2022-09-23T11:22:26.865Z,57.0
2022-09-23T11:32:26.889Z,57.1
2022-09-23T11:37:26.873Z,56.9
2022-09-23T11:42:26.880Z,58.4
2022-09-23T11:47:26.892Z,57.1
2022-09-23T11:57:27.308Z,57.8
2022-09-23T12:02:30.456Z,57.1
2022-09-23T12:07:26.901Z,56.3
2022-09-23T12:12:27.277Z,56.5
2022-09-23T12:17:26.900Z,56.6
2022-09-23T12:22:26.908Z,56.8
2022-09-23T12:27:26.928Z,55.7
2022-09-23T12:32:26.908Z,55.9
2022-09-23T12:37:26.909Z,53.1
2022-09-23T12:42:30.926Z,53.3
2022-09-23T12:47:26.932Z,53.4
2022-09-23T12:57:26.919Z,52.2
2022-09-23T13:02:27.034Z,53.5
2022-09-23T13:07:26.923Z,54.0
2022-09-23T13:12:26.920Z,55.2
2022-09-23T13:17:26.949Z,52.5
2022-09-23T13:22:26.936Z,52.2
2022-09-23T13:27:26.931Z,51.3
2022-09-23T13:42:26.937Z,53.7
2022-09-23T13:47:26.938Z,54.7
2022-09-23T13:52:26.938Z,53.4
2022-09-23T14:02:27.150Z,54.0
2022-09-23T14:07:26.962Z,53.1
2022-09-23T14:12:26.957Z,51.9
2022-09-23T14:17:26.952Z,52.5
2022-09-23T14:22:27.199Z,53.8
2022-09-23T14:37:26.964Z,54.3
2022-09-23T14:47:26.976Z,53.1
2022-09-23T14:52:26.975Z,52.6
2022-09-23T15:07:26.977Z,52.8
2022-09-23T15:12:26.996Z,52.4
2022-09-23T15:22:26.977Z,54.1
2022-09-23T15:27:27.003Z,53.4
2022-09-23T15:32:26.994Z,54.6
2022-09-23T15:37:26.988Z,55.1
2022-09-23T15:42:27.032Z,56.1
2022-09-23T15:47:27.003Z,58.7
2022-09-23T15:52:27.007Z,59.0
2022-09-23T15:57:27.015Z,59.3
2022-09-23T16:02:27.112Z,58.8
2022-09-23T16:12:27.017Z,59.3
2022-09-23T16:17:27.018Z,59.1
2022-09-23T16:22:27.004Z,60.3
2022-09-23T16:32:27.029Z,61.4
2022-09-23T16:37:27.027Z,62.0
2022-09-23T16:42:27.023Z,62.1
2022-09-23T16:47:27.030Z,62.3
2022-09-23T16:52:27.021Z,63.6
2022-09-23T16:57:28.051Z,66.9
2022-09-23T17:02:27.176Z,66.9
2022-09-23T17:07:27.028Z,68.5
2022-09-23T17:12:27.040Z,70.2
2022-09-23T17:17:27.038Z,70.5
2022-09-23T17:22:28.245Z,72.6
2022-09-23T17:32:27.047Z,73.8
2022-09-23T17:42:27.047Z,74.2
2022-09-23T17:47:28.315Z,76.9
2022-09-23T17:52:27.043Z,76.9
2022-09-23T17:57:27.055Z,78.3
2022-09-23T18:02:27.084Z,79.6
2022-09-23T18:07:27.062Z,78.7
2022-09-23T18:12:27.068Z,78.7
2022-09-23T18:17:27.061Z,79.8
2022-09-23T18:22:27.064Z,83.6
2022-09-23T18:27:27.057Z,85.7
2022-09-23T18:32:27.062Z,86.8
2022-09-23T18:42:27.074Z,90.6
2022-09-23T18:52:27.081Z,95.8
2022-09-23T18:57:27.080Z,97.2
2022-09-23T20:07:27.103Z,100.0
2022-09-23T20:12:27.117Z,100.0
2022-09-23T20:42:27.123Z,100.0
2022-09-23T20:47:27.117Z,100.0
2022-09-23T20:57:27.120Z,100.0
2022-09-23T22:02:27.140Z,100.0
2022-09-23T22:07:27.150Z,100.0
2022-09-23T22:22:27.147Z,100.0
2022-09-23T22:42:27.152Z,100.0
2022-09-23T22:57:27.163Z,100.0
2022-09-23T23:02:27.158Z,100.0
2022-09-23T23:12:27.153Z,100.0
2022-09-23T23:37:27.167Z,100.0
2022-09-23T23:52:27.182Z,100.0
